createdAt,value
2018-12-21T00:01:53.274Z,6.63
2018-12-21T00:04:21.487Z,6.61
2018-12-21T00:06:49.105Z,6.64
2018-12-21T00:09:16.874Z,6.63
2018-12-21T00:11:44.694Z,6.65
2018-12-21T00:14:12.357Z,6.63
2018-12-21T00:16:39.881Z,6.64
2018-12-21T00:19:07.459Z,6.63
2018-12-21T00:21:35.952Z,6.60
2018-12-21T00:24:03.559Z,6.60
2018-12-21T00:26:31.199Z,6.61
2018-12-21T00:28:58.940Z,6.65
2018-12-21T00:31:31.917Z,6.65
2018-12-21T00:34:04.923Z,6.66
2018-12-21T00:36:37.892Z,6.69
2018-12-21T00:39:12.425Z,6.71
2018-12-21T00:41:39.369Z,6.69
2018-12-21T00:44:26.260Z,6.71
2018-12-21T00:46:56.084Z,6.72
2018-12-21T00:49:23.762Z,6.68
2018-12-21T00:51:51.664Z,6.70
2018-12-21T00:54:19.181Z,6.67
2018-12-21T00:56:46.943Z,6.66
2018-12-21T00:59:14.579Z,6.69
2018-12-21T01:01:42.302Z,6.72
2018-12-21T01:04:09.800Z,6.82
2018-12-21T01:06:37.597Z,6.81
2018-12-21T01:09:05.990Z,6.83
2018-12-21T01:11:33.773Z,6.82
2018-12-21T01:14:01.341Z,6.81
2018-12-21T01:16:28.989Z,6.86
2018-12-21T01:18:56.926Z,6.88
2018-12-21T01:21:24.498Z,6.90
2018-12-21T01:23:52.021Z,6.89
2018-12-21T01:26:19.666Z,6.92
2018-12-21T01:28:47.400Z,6.98
2018-12-21T01:31:14.924Z,6.97
2018-12-21T01:33:42.513Z,6.98
2018-12-21T01:36:10.155Z,6.97
2018-12-21T01:38:37.900Z,6.97
2018-12-21T01:41:05.509Z,6.97
2018-12-21T01:43:33.096Z,7.00
2018-12-21T01:46:00.730Z,6.98
2018-12-21T01:48:28.258Z,6.97
2018-12-21T01:50:55.880Z,7.00
2018-12-21T01:53:23.521Z,7.01
2018-12-21T01:55:51.219Z,7.06
2018-12-21T01:58:18.736Z,7.06
2018-12-21T02:00:46.499Z,7.05
2018-12-21T02:03:14.210Z,7.08
2018-12-21T02:05:41.955Z,7.13
2018-12-21T02:08:09.605Z,7.08
2018-12-21T02:10:37.206Z,7.12
2018-12-21T02:13:04.830Z,7.14
2018-12-21T02:15:32.446Z,7.11
2018-12-21T02:18:00.129Z,7.12
2018-12-21T02:20:27.950Z,7.13
2018-12-21T02:22:55.601Z,7.14
2018-12-21T02:25:23.203Z,7.16
2018-12-21T02:27:50.759Z,7.16
2018-12-21T02:30:18.383Z,7.16
2018-12-21T02:32:46.098Z,7.20
2018-12-21T02:35:13.664Z,7.20
2018-12-21T02:37:41.196Z,7.17
2018-12-21T02:40:08.877Z,7.21
2018-12-21T02:42:36.468Z,7.19
2018-12-21T02:45:04.718Z,7.18
2018-12-21T02:47:32.577Z,7.18
2018-12-21T02:50:00.199Z,7.19
2018-12-21T02:52:27.811Z,7.20
2018-12-21T02:54:55.374Z,7.17
2018-12-21T02:57:22.983Z,7.14
2018-12-21T02:59:50.764Z,7.10
2018-12-21T03:02:18.427Z,7.07
2018-12-21T03:04:46.109Z,7.09
2018-12-21T03:07:13.690Z,7.06
2018-12-21T03:09:41.426Z,7.03
2018-12-21T03:12:09.047Z,7.04
2018-12-21T03:14:36.669Z,7.03
2018-12-21T03:17:04.557Z,7.02
2018-12-21T03:19:32.184Z,7.05
2018-12-21T03:21:59.717Z,7.06
2018-12-21T03:24:27.442Z,7.05
2018-12-21T03:26:54.942Z,7.05
2018-12-21T03:29:22.663Z,6.97
2018-12-21T03:31:50.383Z,7.02
2018-12-21T03:34:18.133Z,7.00
2018-12-21T03:36:45.825Z,7.04
2018-12-21T03:39:13.398Z,7.07
2018-12-21T03:41:41.034Z,7.09
2018-12-21T03:44:08.665Z,7.13
2018-12-21T03:46:36.187Z,7.16
2018-12-21T03:49:03.841Z,7.15
2018-12-21T03:51:31.457Z,7.13
2018-12-21T03:53:59.034Z,7.15
2018-12-21T03:56:26.589Z,7.21
2018-12-21T03:58:54.728Z,7.25
2018-12-21T04:01:22.317Z,7.24
2018-12-21T04:03:49.997Z,7.21
2018-12-21T04:06:17.562Z,7.25
2018-12-21T04:08:45.129Z,7.23
2018-12-21T04:11:12.886Z,7.18
2018-12-21T04:13:40.940Z,7.17
2018-12-21T04:16:08.705Z,7.21
2018-12-21T04:18:36.572Z,7.19
2018-12-21T04:21:04.241Z,7.18
2018-12-21T04:23:31.827Z,7.21
2018-12-21T04:25:59.370Z,7.20
2018-12-21T04:28:26.943Z,7.19
2018-12-21T04:30:54.634Z,7.17
2018-12-21T04:33:22.133Z,7.12
2018-12-21T04:35:49.725Z,7.10
2018-12-21T04:38:17.285Z,7.09
2018-12-21T04:40:44.845Z,7.13
2018-12-21T04:43:12.490Z,7.10
2018-12-21T04:45:40.039Z,7.06
2018-12-21T04:48:07.739Z,7.03
2018-12-21T04:50:35.497Z,7.07
2018-12-21T04:53:03.156Z,7.06
2018-12-21T04:55:30.761Z,7.07
2018-12-21T04:57:58.323Z,7.06
2018-12-21T05:00:25.978Z,7.10
2018-12-21T05:02:53.568Z,7.15
2018-12-21T05:05:21.134Z,7.18
2018-12-21T05:07:48.694Z,7.20
2018-12-21T05:10:16.363Z,7.25
2018-12-21T05:12:44.356Z,7.27
2018-12-21T05:15:11.914Z,7.31
2018-12-21T05:17:39.598Z,7.33
2018-12-21T05:20:07.240Z,7.43
2018-12-21T05:22:34.924Z,7.44
2018-12-21T05:25:02.816Z,7.55
2018-12-21T05:27:30.364Z,7.53
2018-12-21T05:29:58.095Z,7.57
2018-12-21T05:32:25.706Z,7.58
2018-12-21T05:34:53.304Z,7.57
2018-12-21T05:37:21.042Z,7.69
2018-12-21T05:39:48.567Z,7.74
2018-12-21T05:42:17.207Z,7.71
2018-12-21T05:44:44.755Z,7.76
2018-12-21T05:47:12.403Z,7.78
2018-12-21T05:49:40.046Z,7.83
2018-12-21T05:52:07.568Z,7.87
2018-12-21T05:54:35.182Z,7.94
2018-12-21T05:57:03.070Z,7.96
2018-12-21T05:59:30.655Z,8.00
2018-12-21T06:01:58.313Z,7.99
2018-12-21T06:04:25.811Z,8.08
2018-12-21T06:06:53.395Z,8.14
2018-12-21T06:09:21.194Z,8.19
2018-12-21T06:11:48.746Z,8.19
2018-12-21T06:14:16.417Z,8.19
2018-12-21T06:16:44.070Z,8.23
2018-12-21T06:19:12.329Z,8.26
2018-12-21T06:21:40.198Z,8.24
2018-12-21T06:24:07.819Z,8.24
2018-12-21T06:26:35.309Z,8.27
2018-12-21T06:29:02.837Z,8.29
2018-12-21T06:31:30.547Z,8.38
2018-12-21T06:33:58.137Z,8.40
2018-12-21T06:36:25.905Z,8.44
2018-12-21T06:38:53.622Z,8.51
2018-12-21T06:41:21.198Z,8.44
2018-12-21T06:43:48.753Z,8.37
2018-12-21T06:46:16.310Z,8.35
2018-12-21T06:48:44.625Z,8.32
2018-12-21T06:51:12.240Z,8.29
2018-12-21T06:53:39.852Z,8.28
2018-12-21T06:56:07.495Z,8.25
2018-12-21T06:58:35.137Z,8.16
2018-12-21T07:01:02.817Z,8.08
2018-12-21T07:03:30.325Z,7.99
2018-12-21T07:05:57.989Z,7.98
2018-12-21T07:08:25.765Z,7.93
2018-12-21T07:10:53.379Z,7.91
2018-12-21T07:13:21.341Z,7.92
2018-12-21T07:15:52.833Z,7.87
2018-12-21T07:18:23.398Z,7.88
2018-12-21T07:20:54.406Z,7.90
2018-12-21T07:23:27.626Z,7.85
2018-12-21T07:25:58.016Z,7.81
2018-12-21T07:28:28.755Z,7.79
2018-12-21T07:31:04.314Z,7.81
2018-12-21T07:33:35.582Z,7.79
2018-12-21T07:36:08.587Z,7.81
2018-12-21T07:38:37.427Z,7.79
2018-12-21T07:41:06.276Z,7.76
2018-12-21T07:43:35.662Z,7.75
2018-12-21T07:46:06.277Z,7.79
2018-12-21T07:48:36.531Z,7.76
2018-12-21T07:51:07.011Z,7.78
2018-12-21T07:53:36.844Z,7.73
2018-12-21T07:56:08.908Z,7.66
2018-12-21T07:58:36.594Z,7.58
2018-12-21T08:01:04.287Z,7.61
2018-12-21T08:03:31.889Z,7.58
2018-12-21T08:05:59.489Z,7.58
2018-12-21T08:08:27.259Z,7.57
2018-12-21T08:10:54.883Z,7.58
2018-12-21T08:13:22.587Z,7.59
2018-12-21T08:15:50.111Z,7.54
2018-12-21T08:18:17.666Z,7.55
2018-12-21T08:20:45.205Z,7.58
2018-12-21T08:23:12.870Z,7.57
2018-12-21T08:25:40.418Z,7.57
2018-12-21T08:28:07.906Z,7.60
2018-12-21T08:30:35.468Z,7.58
2018-12-21T08:33:03.064Z,7.62
2018-12-21T08:35:30.722Z,7.68
2018-12-21T08:37:58.393Z,7.69
2018-12-21T08:40:26.021Z,7.70
2018-12-21T08:42:53.587Z,7.69
2018-12-21T08:45:21.127Z,7.71
2018-12-21T08:47:50.101Z,7.73
2018-12-21T08:50:26.897Z,7.74
2018-12-21T08:52:56.287Z,7.77
2018-12-21T08:55:28.106Z,7.80
2018-12-21T08:58:13.944Z,7.79
2018-12-21T09:00:45.199Z,7.79
2018-12-21T09:03:14.298Z,7.79
2018-12-21T09:05:45.776Z,7.81
2018-12-21T09:08:16.808Z,7.81
2018-12-21T09:10:49.411Z,7.84
2018-12-21T09:13:19.001Z,7.85
2018-12-21T09:15:49.304Z,7.88
2018-12-21T09:18:19.480Z,7.91
2018-12-21T09:20:49.616Z,7.92
2018-12-21T09:23:19.179Z,7.95
2018-12-21T09:25:48.958Z,8.02
2018-12-21T09:28:19.251Z,8.05
2018-12-21T09:30:52.812Z,8.02
2018-12-21T09:33:22.225Z,8.04
2018-12-21T09:35:53.404Z,8.09
2018-12-21T09:38:24.247Z,8.10
2018-12-21T09:41:08.496Z,8.13
2018-12-21T09:43:38.158Z,8.19
2018-12-21T09:46:07.253Z,8.20
2018-12-21T09:48:37.289Z,8.31
2018-12-21T09:51:06.826Z,8.35
2018-12-21T09:53:38.644Z,8.34
2018-12-21T09:56:07.249Z,8.34
2018-12-21T09:58:35.027Z,8.40
2018-12-21T10:01:02.838Z,8.39
2018-12-21T10:03:30.475Z,8.40
2018-12-21T10:05:58.289Z,8.42
2018-12-21T10:08:26.020Z,8.45
2018-12-21T10:10:53.638Z,8.44
2018-12-21T10:13:21.235Z,8.48
2018-12-21T10:15:48.864Z,8.52
2018-12-21T10:18:16.402Z,8.52
2018-12-21T10:20:43.953Z,8.54
2018-12-21T10:23:11.622Z,8.57
2018-12-21T10:25:39.237Z,8.57
2018-12-21T10:28:06.912Z,8.66
2018-12-21T10:30:34.593Z,8.68
2018-12-21T10:33:02.113Z,8.73
2018-12-21T10:35:29.791Z,8.86
2018-12-21T10:37:57.533Z,8.86
2018-12-21T10:40:25.120Z,8.86
2018-12-21T10:42:52.767Z,8.89
2018-12-21T10:45:20.314Z,8.88
2018-12-21T10:47:47.883Z,8.95
2018-12-21T10:50:15.405Z,8.97
2018-12-21T10:52:43.093Z,9.02
2018-12-21T10:55:10.822Z,9.05
2018-12-21T10:57:38.475Z,9.03
2018-12-21T11:00:08.297Z,9.04
2018-12-21T11:02:35.801Z,9.04
2018-12-21T11:05:03.555Z,9.04
2018-12-21T11:07:31.109Z,9.04
2018-12-21T11:09:58.634Z,9.04
2018-12-21T11:12:26.246Z,9.00
2018-12-21T11:14:54.008Z,8.94
2018-12-21T11:17:21.868Z,9.00
2018-12-21T11:19:49.516Z,8.98
2018-12-21T11:22:17.047Z,9.02
2018-12-21T11:24:44.655Z,9.11
2018-12-21T11:27:12.437Z,9.13
2018-12-21T11:29:40.216Z,9.14
2018-12-21T11:32:07.836Z,9.19
2018-12-21T11:34:35.396Z,9.25
2018-12-21T11:37:03.658Z,9.29
2018-12-21T11:39:31.427Z,9.29
2018-12-21T11:41:59.114Z,9.34
2018-12-21T11:44:26.821Z,9.38
2018-12-21T11:46:54.558Z,9.42
2018-12-21T11:49:22.143Z,9.45
2018-12-21T11:51:49.822Z,9.45
2018-12-21T11:54:17.335Z,9.46
2018-12-21T11:56:45.094Z,9.46
2018-12-21T11:59:12.681Z,9.47
2018-12-21T12:01:40.230Z,9.52
2018-12-21T12:04:07.879Z,9.52
2018-12-21T12:06:35.664Z,9.54
2018-12-21T12:09:06.405Z,9.56
2018-12-21T12:11:34.313Z,9.58
2018-12-21T12:14:01.889Z,9.62
2018-12-21T12:16:29.457Z,9.65
2018-12-21T12:18:57.498Z,9.68
2018-12-21T12:21:24.989Z,9.69
2018-12-21T12:23:52.721Z,9.72
2018-12-21T12:26:20.239Z,9.78
2018-12-21T12:28:47.759Z,9.78
2018-12-21T12:31:15.331Z,9.80
2018-12-21T12:33:42.834Z,9.91
2018-12-21T12:36:10.371Z,9.95
2018-12-21T12:38:37.991Z,9.99
2018-12-21T12:41:06.781Z,10.04
2018-12-21T12:43:34.660Z,10.12
2018-12-21T12:46:02.848Z,10.13
2018-12-21T12:48:30.538Z,10.13
2018-12-21T12:50:58.616Z,10.15
2018-12-21T12:53:26.231Z,10.21
2018-12-21T12:55:53.894Z,10.25
2018-12-21T12:58:21.432Z,10.20
2018-12-21T13:00:49.041Z,10.29
2018-12-21T13:03:16.597Z,10.35
2018-12-21T13:05:44.200Z,10.34
2018-12-21T13:08:11.834Z,10.34
2018-12-21T13:10:39.412Z,10.44
2018-12-21T13:13:07.159Z,10.51
2018-12-21T13:15:34.705Z,10.56
2018-12-21T13:18:02.343Z,10.56
2018-12-21T13:20:29.977Z,10.64
2018-12-21T13:22:57.794Z,10.64
2018-12-21T13:25:25.397Z,10.66
2018-12-21T13:27:53.085Z,10.74
2018-12-21T13:30:20.641Z,10.74
2018-12-21T13:32:48.200Z,10.77
2018-12-21T13:35:15.807Z,10.77
2018-12-21T13:37:43.472Z,10.77
2018-12-21T13:40:11.830Z,10.80
2018-12-21T13:42:39.441Z,10.84
2018-12-21T13:45:08.487Z,10.82
2018-12-21T13:47:36.047Z,10.84
2018-12-21T13:50:03.838Z,10.84
2018-12-21T13:52:31.521Z,10.79
2018-12-21T13:54:59.125Z,10.80
2018-12-21T13:57:26.763Z,10.77
2018-12-21T13:59:54.325Z,10.78
2018-12-21T14:02:21.869Z,10.78
2018-12-21T14:04:49.655Z,10.78
2018-12-21T14:07:17.172Z,10.78
2018-12-21T14:09:44.820Z,10.78
2018-12-21T14:12:12.333Z,10.77
2018-12-21T14:14:39.866Z,10.78
2018-12-21T14:17:07.462Z,10.79
2018-12-21T14:19:35.001Z,10.85
2018-12-21T14:22:02.523Z,10.79
2018-12-21T14:24:30.124Z,10.83
2018-12-21T14:26:57.601Z,10.84
2018-12-21T14:29:25.123Z,10.87
2018-12-21T14:31:52.754Z,10.83
2018-12-21T14:34:20.465Z,10.84
2018-12-21T14:36:48.086Z,10.82
2018-12-21T14:39:15.665Z,10.81
2018-12-21T14:41:43.247Z,10.81
2018-12-21T14:44:10.944Z,10.81
2018-12-21T14:46:38.445Z,10.81
2018-12-21T14:49:06.017Z,10.81
2018-12-21T14:51:33.537Z,10.80
2018-12-21T14:54:01.158Z,10.82
2018-12-21T14:56:28.874Z,10.82
2018-12-21T14:58:56.579Z,10.84
2018-12-21T15:01:24.183Z,10.88
2018-12-21T15:03:51.798Z,10.88
2018-12-21T15:06:19.606Z,10.88
2018-12-21T15:08:47.187Z,10.92
2018-12-21T15:11:15.945Z,10.94
2018-12-21T15:13:43.563Z,10.92
2018-12-21T15:16:11.117Z,10.92
2018-12-21T15:18:38.782Z,10.87
2018-12-21T15:21:06.277Z,10.91
2018-12-21T15:23:33.885Z,10.92
2018-12-21T15:26:01.451Z,10.91
2018-12-21T15:28:29.737Z,10.90
2018-12-21T15:30:57.221Z,10.93
2018-12-21T15:33:24.882Z,10.98
2018-12-21T15:35:52.531Z,10.85
2018-12-21T15:38:20.069Z,10.73
2018-12-21T15:40:47.638Z,10.71
2018-12-21T15:43:15.169Z,10.73
2018-12-21T15:45:42.817Z,10.73
2018-12-21T15:48:10.480Z,10.74
2018-12-21T15:50:38.030Z,10.75
2018-12-21T15:53:05.656Z,10.78
2018-12-21T15:55:33.291Z,10.80
2018-12-21T15:58:00.848Z,10.83
2018-12-21T16:00:28.609Z,10.85
2018-12-21T16:02:56.886Z,10.92
2018-12-21T16:05:24.635Z,10.94
2018-12-21T16:07:52.170Z,11.00
2018-12-21T16:10:19.771Z,11.03
2018-12-21T16:12:47.354Z,11.10
2018-12-21T16:15:14.917Z,11.20
2018-12-21T16:17:42.515Z,11.19
2018-12-21T16:20:11.766Z,11.26
2018-12-21T16:22:42.539Z,11.28
2018-12-21T16:25:09.141Z,11.30
2018-12-21T16:27:36.764Z,11.33
2018-12-21T16:30:04.863Z,11.31
2018-12-21T16:32:32.437Z,11.30
2018-12-21T16:34:59.971Z,11.36
2018-12-21T16:37:27.519Z,11.34
2018-12-21T16:39:55.105Z,11.38
2018-12-21T16:42:22.665Z,11.41
2018-12-21T16:44:50.287Z,11.41
2018-12-21T16:47:17.911Z,11.47
2018-12-21T16:49:45.549Z,11.47
2018-12-21T16:52:13.958Z,11.47
2018-12-21T16:54:41.629Z,11.49
2018-12-21T16:57:09.277Z,11.51
2018-12-21T16:59:37.005Z,11.55
2018-12-21T17:02:04.881Z,11.58
2018-12-21T17:04:32.413Z,11.63
2018-12-21T17:07:00.140Z,11.65
2018-12-21T17:09:27.853Z,11.62
2018-12-21T17:11:55.543Z,11.71
2018-12-21T17:14:23.329Z,11.71
2018-12-21T17:16:50.986Z,11.73
2018-12-21T17:19:20.076Z,11.72
2018-12-21T17:21:47.879Z,11.73
2018-12-21T17:24:15.501Z,11.75
2018-12-21T17:26:44.546Z,11.79
2018-12-21T17:29:12.127Z,11.79
2018-12-21T17:31:40.012Z,11.79
2018-12-21T17:34:07.574Z,11.82
2018-12-21T17:36:35.141Z,11.83
2018-12-21T17:39:03.380Z,11.80
2018-12-21T17:41:30.996Z,11.85
2018-12-21T17:43:58.565Z,11.85
2018-12-21T17:46:26.352Z,11.85
2018-12-21T17:48:54.069Z,11.83
2018-12-21T17:51:21.597Z,11.85
2018-12-21T17:53:49.328Z,11.90
2018-12-21T17:56:16.901Z,11.89
2018-12-21T17:58:44.701Z,11.89
2018-12-21T18:01:12.375Z,11.89
2018-12-21T18:03:43.036Z,11.92
2018-12-21T18:06:10.692Z,11.86
2018-12-21T18:08:38.357Z,11.86
2018-12-21T18:11:06.009Z,11.87
2018-12-21T18:13:33.630Z,11.86
2018-12-21T18:16:01.218Z,11.88
2018-12-21T18:18:28.765Z,11.89
2018-12-21T18:20:56.413Z,11.89
2018-12-21T18:23:24.313Z,11.91
2018-12-21T18:25:52.169Z,11.87
2018-12-21T18:28:22.233Z,11.88
2018-12-21T18:30:51.079Z,11.90
2018-12-21T18:33:20.547Z,11.95
2018-12-21T18:35:48.097Z,11.86
2018-12-21T18:38:17.513Z,11.92
2018-12-21T18:40:45.218Z,11.86
2018-12-21T18:43:12.928Z,11.86
2018-12-21T18:45:40.726Z,11.91
2018-12-21T18:48:08.289Z,11.86
2018-12-21T18:50:35.813Z,11.79
2018-12-21T18:53:03.455Z,11.76
2018-12-21T18:55:31.087Z,11.75
2018-12-21T18:57:58.729Z,11.72
2018-12-21T19:00:26.399Z,11.67
2018-12-21T19:02:54.413Z,11.65
2018-12-21T19:05:22.058Z,11.63
2018-12-21T19:07:49.569Z,11.54
2018-12-21T19:10:17.264Z,11.51
2018-12-21T19:12:45.085Z,11.51
2018-12-21T19:15:12.766Z,11.49
2018-12-21T19:17:41.099Z,11.52
2018-12-21T19:20:10.063Z,11.43
2018-12-21T19:22:37.758Z,11.33
2018-12-21T19:25:06.032Z,11.30
2018-12-21T19:27:33.663Z,11.30
2018-12-21T19:30:01.320Z,11.27
2018-12-21T19:32:29.085Z,11.24
2018-12-21T19:34:56.657Z,11.30
2018-12-21T19:37:24.287Z,11.24
2018-12-21T19:39:51.799Z,11.31
2018-12-21T19:42:19.447Z,11.25
2018-12-21T19:44:47.162Z,11.23
2018-12-21T19:47:15.200Z,11.24
2018-12-21T19:49:43.100Z,11.21
2018-12-21T19:52:10.768Z,11.24
2018-12-21T19:54:38.445Z,11.26
2018-12-21T19:57:08.169Z,11.23
2018-12-21T19:59:36.036Z,11.18
2018-12-21T20:02:03.938Z,11.19
2018-12-21T20:04:31.639Z,11.19
2018-12-21T20:06:59.286Z,11.25
2018-12-21T20:09:26.872Z,11.25
2018-12-21T20:11:54.537Z,11.22
2018-12-21T20:14:22.065Z,11.29
2018-12-21T20:16:49.635Z,11.29
2018-12-21T20:19:17.591Z,11.34
2018-12-21T20:21:45.115Z,11.37
2018-12-21T20:24:12.776Z,11.37
2018-12-21T20:26:41.783Z,11.34
2018-12-21T20:29:09.489Z,11.35
2018-12-21T20:31:37.562Z,11.33
2018-12-21T20:34:05.292Z,11.31
2018-12-21T20:36:32.902Z,11.28
2018-12-21T20:39:00.648Z,11.30
2018-12-21T20:41:28.356Z,11.34
2018-12-21T20:43:56.042Z,11.41
2018-12-21T20:46:23.992Z,11.45
2018-12-21T20:48:51.719Z,11.43
2018-12-21T20:51:19.378Z,11.47
2018-12-21T20:53:47.078Z,11.51
2018-12-21T20:56:14.832Z,11.48
2018-12-21T20:58:46.573Z,11.50
2018-12-21T21:01:14.229Z,11.44
2018-12-21T21:03:42.313Z,11.41
2018-12-21T21:06:10.090Z,11.37
2018-12-21T21:08:38.034Z,11.36
2018-12-21T21:11:06.944Z,11.41
2018-12-21T21:13:34.574Z,11.37
2018-12-21T21:16:02.294Z,11.38
2018-12-21T21:18:29.912Z,11.40
2018-12-21T21:20:57.559Z,11.40
2018-12-21T21:23:25.127Z,11.30
2018-12-21T21:25:52.767Z,11.32
2018-12-21T21:28:20.554Z,11.36
2018-12-21T21:30:48.097Z,11.39
2018-12-21T21:33:15.799Z,11.44
2018-12-21T21:35:43.486Z,11.48
2018-12-21T21:38:10.981Z,11.52
2018-12-21T21:40:39.261Z,11.51
2018-12-21T21:43:08.847Z,11.54
2018-12-21T21:45:36.465Z,11.59
2018-12-21T21:48:04.104Z,11.56
2018-12-21T21:50:31.642Z,11.57
2018-12-21T21:52:59.280Z,11.55
2018-12-21T21:55:26.918Z,11.55
2018-12-21T21:57:54.464Z,11.41
2018-12-21T22:00:21.989Z,11.22
2018-12-21T22:02:49.572Z,11.17
2018-12-21T22:05:17.238Z,11.12
2018-12-21T22:07:44.875Z,11.13
2018-12-21T22:10:12.425Z,11.10
2018-12-21T22:12:39.983Z,11.08
2018-12-21T22:15:08.737Z,11.07
2018-12-21T22:17:36.459Z,11.08
2018-12-21T22:20:04.654Z,11.05
2018-12-21T22:22:32.436Z,11.05
2018-12-21T22:25:00.045Z,11.07
2018-12-21T22:27:27.703Z,11.12
2018-12-21T22:29:56.089Z,11.13
2018-12-21T22:32:24.010Z,11.13
2018-12-21T22:34:51.887Z,11.06
2018-12-21T22:37:19.437Z,11.06
2018-12-21T22:39:47.047Z,11.06
2018-12-21T22:42:14.933Z,11.08
2018-12-21T22:44:42.879Z,11.08
2018-12-21T22:47:10.413Z,11.11
2018-12-21T22:49:38.211Z,11.09
2018-12-21T22:52:05.743Z,11.07
2018-12-21T22:54:33.327Z,11.05
2018-12-21T22:57:00.933Z,11.09
2018-12-21T22:59:28.469Z,11.03
2018-12-21T23:01:56.222Z,10.98
2018-12-21T23:04:23.931Z,10.94
2018-12-21T23:06:51.683Z,10.96
2018-12-21T23:09:19.416Z,10.98
2018-12-21T23:11:47.122Z,10.98
2018-12-21T23:14:15.066Z,11.01
2018-12-21T23:16:42.872Z,11.01
2018-12-21T23:19:10.423Z,11.00
2018-12-21T23:21:38.333Z,11.10
2018-12-21T23:24:06.173Z,11.07
2018-12-21T23:26:33.920Z,11.12
2018-12-21T23:29:01.826Z,11.12
2018-12-21T23:31:29.461Z,11.13
2018-12-21T23:33:57.046Z,11.11
2018-12-21T23:36:24.753Z,11.13
2018-12-21T23:38:52.983Z,11.17
2018-12-21T23:41:20.853Z,11.19
2018-12-21T23:43:48.510Z,11.22
2018-12-21T23:46:18.365Z,11.23
2018-12-21T23:48:46.384Z,11.22
2018-12-21T23:51:14.459Z,11.20
2018-12-21T23:53:43.009Z,11.19
2018-12-21T23:56:12.045Z,11.16
2018-12-21T23:58:42.846Z,11.11
